x

Smith Island, Wa (sisw1) Weather Station

2:00 - Sat 3rd Dec 2016 All times are PST. -8 hours from GMT.

  • Wind
    25mph, 29mph gusts
  • Luft Temp 48°f
  • Sea Pressure 1021.9mb
  • Smith Island, Wa
  • Smith Island, Wa

More Historic Weather Station data

Upgrade to MSW Pro to gain access to the past 30 days of data for over 8000 Wavebouys and Weather Stations around the globe.

Join Pro

Comparision Forecast

View Surf forecast
   
Sa 12/03 2:00 25 29 mph 1021.9mb 48f
1:00 21 28 mph 1021.7mb 48f
12:00 17 26 mph 1021.3mb 49f
Fr 12/02 11:00 20 33 mph 1019.9mb 49f
10:00 22 30 mph 1019.8mb 49f
9:00 24 30 mph 1019.1mb 49f
8:00 24 31 mph 1018.6mb 50f
7:00 33 38 mph 1017.8mb 50f
6:00 15 17 mph 1018.4mb 48f
5:00 10 11 mph 1018.1mb 48f
4:00 20 22 mph 1018.1mb 47f
3:00 36 40 mph 1016.5mb 48f
2:00 33 38 mph 1016.7mb 48f
1:00 33 39 mph 1017.6mb 49f
12:00 38 40 mph 1018.6mb 48f
11:00 37 41 mph 1019.8mb 47f
10:00 34 38 mph 1020.6mb 47f
9:00 32 37 mph 1021.4mb 47f
8:00 28 31 mph 1022.6mb 47f
7:00 26 30 mph 1023mb 47f
6:00 23 25 mph 1023.3mb 46f
5:00 28 31 mph 1023.3mb 46f
4:00 25 29 mph 1023.9mb 47f
3:00 20 23 mph 1024.4mb 46f
2:00 20 23 mph 1025.2mb 46f
1:00 20 25 mph 1025.3mb 45f
12:00 22 26 mph 1025.4mb 45f
Do 12/01 11:00 20 22 mph 1025.8mb 45f
10:00 21 23 mph 1025.6mb 45f
9:00 17 18 mph 1026mb 45f
8:00 18 21 mph 1026.4mb 45f
7:00 17 20 mph 1025.9mb 45f
6:00 16 18 mph 1026.3mb 45f
5:00 16 18 mph 1025.9mb 45f
4:00 21 23 mph 1025.6mb 45f
3:00 16 20 mph 1025.6mb 45f
2:00 13 15 mph 1025.4mb 46f
1:00 10 13 mph 1025.1mb 46f
12:00 11 13 mph 1024.8mb 46f
11:00 6 8 mph 1025mb 47f
9:00 6 8 mph 1023.8mb 46f
8:00 10 14 mph 1023.3mb 46f
7:00 14 17 mph 1022.7mb 46f
6:00 16 20 mph 1021.8mb 46f
5:00 11 14 mph 1022.1mb 47f
4:00 5 6 mph 1022.2mb 46f
3:00 7 8 mph 1021.9mb 46f
2:00 11 16 mph 1021.2mb 47f
1:00 16 21 mph 1020.7mb 48f
12:00 23 25 mph 1020.1mb 48f
Mi 11/30 11:00 21 29 mph 1019.4mb 49f
10:00 24 31 mph 1018.9mb 49f
9:00 21 30 mph 1018.3mb 49f
8:00 22 31 mph 1017.8mb 49f
7:00 18 30 mph 1017.2mb 49f
6:00 21 34 mph 1016.7mb 50f
5:00 21 34 mph 1016.2mb 50f
4:00 29 37 mph 1015.5mb 50f
3:00 10 14 mph 1015.4mb 48f
2:00 22 26 mph 1014.5mb 47f
1:00 20 32 mph 1012.7mb 50f
12:00 31 47 mph 1012mb 48f
11:00 20 33 mph 1011.8mb 49f
10:00 33 40 mph 1010.7mb 49f
9:00 14 16 mph 1010.4mb 47f
8:00 25 29 mph 1008.9mb 46f
7:00 20 23 mph 1009.1mb 46f
6:00 29 33 mph 1008.1mb 47f
5:00 26 31 mph 1008mb 47f
4:00 32 38 mph 1008.1mb 47f
3:00 37 40 mph 1007.9mb 47f
2:00 40 46 mph 1007.5mb 47f
1:00 44 48 mph 1007.6mb 47f
12:00 41 47 mph 1007.9mb 48f
Di 11/29 11:00 34 39 mph 1009mb 49f
10:00 40 45 mph 1009.1mb 49f
9:00 23 29 mph 1010mb 48f
8:00 28 31 mph 1011.1mb 48f
7:00 28 30 mph 1012.2mb 48f
6:00 22 24 mph 1013.7mb 48f
5:00 22 25 mph 1014.9mb 48f
4:00 22 24 mph 1016.1mb 48f
3:00 20 25 mph 1017.2mb 48f
2:00 18 21 mph 1018.3mb 48f
1:00 16 18 mph 1019.3mb 47f
12:00 8 9 mph 1020.7mb 47f